createdAt,value
2023-04-14T00:01:55.000Z,6.2
2023-04-14T00:04:40.000Z,6.6
2023-04-14T00:05:58.000Z,5.8
2023-04-14T00:07:25.000Z,6
2023-04-14T00:10:09.000Z,6
2023-04-14T00:12:54.000Z,6.2
2023-04-14T00:15:39.000Z,6.1
2023-04-14T00:18:23.000Z,5.6
2023-04-14T00:21:08.000Z,6.3
2023-04-14T00:23:53.000Z,6.1
2023-04-14T00:26:37.000Z,6.3
2023-04-14T00:29:22.000Z,5.9
2023-04-14T00:32:06.000Z,4.9
2023-04-14T00:33:24.000Z,5.2
2023-04-14T00:34:51.000Z,5.7
2023-04-14T00:37:36.000Z,5
2023-04-14T00:40:20.000Z,6.8
2023-04-14T00:43:05.000Z,6.3
2023-04-14T00:45:50.000Z,6.2
2023-04-14T00:48:34.000Z,6
2023-04-14T00:51:19.000Z,4.7
2023-04-14T00:54:04.000Z,5.9
2023-04-14T00:56:48.000Z,6.6
2023-04-14T00:59:33.000Z,6.3
2023-04-14T01:00:51.000Z,5.5
2023-04-14T01:02:17.000Z,4.3
2023-04-14T01:05:02.000Z,4.6
2023-04-14T01:07:47.000Z,5.2
2023-04-14T01:10:31.000Z,5.3
2023-04-14T01:13:16.000Z,5.4
2023-04-14T01:16:01.000Z,5.2
2023-04-14T01:18:45.000Z,5.7
2023-04-14T01:21:30.000Z,4.2
2023-04-14T01:24:15.000Z,3.6
2023-04-14T01:26:59.000Z,3.2
2023-04-14T01:28:17.000Z,4.4
2023-04-14T01:29:44.000Z,4
2023-04-14T01:32:29.000Z,3.2
2023-04-14T01:35:13.000Z,3.6
2023-04-14T01:37:58.000Z,4.6
2023-04-14T01:40:42.000Z,5.2
2023-04-14T01:43:27.000Z,4.9
2023-04-14T01:46:12.000Z,5
2023-04-14T01:48:56.000Z,11.5
2023-04-14T01:51:41.000Z,5.8
2023-04-14T01:54:26.000Z,5.6
2023-04-14T01:55:43.000Z,4.3
2023-04-14T01:57:10.000Z,4.5
2023-04-14T01:59:55.000Z,4.7
2023-04-14T02:02:40.000Z,3.9
2023-04-14T02:05:24.000Z,4.5
2023-04-14T02:08:09.000Z,5
2023-04-14T02:10:54.000Z,4
2023-04-14T02:16:23.000Z,3.9
2023-04-14T02:19:07.000Z,4.8
2023-04-14T02:21:52.000Z,3.9
2023-04-14T02:23:10.000Z,3
2023-04-14T02:24:37.000Z,3.2
2023-04-14T02:27:21.000Z,4.2
2023-04-14T02:30:06.000Z,3.9
2023-04-14T02:32:51.000Z,3.9
2023-04-14T02:35:35.000Z,4
2023-04-14T02:38:20.000Z,3.8
2023-04-14T02:41:05.000Z,5.5
2023-04-14T02:43:49.000Z,5.4
2023-04-14T02:46:34.000Z,6.7
2023-04-14T02:49:18.000Z,5.2
2023-04-14T02:50:36.000Z,5
2023-04-14T02:52:03.000Z,5.3
2023-04-14T02:54:48.000Z,4.5
2023-04-14T02:57:32.000Z,4.5
2023-04-14T03:00:17.000Z,5.4
2023-04-14T03:03:02.000Z,4.7
2023-04-14T03:05:46.000Z,3.9
2023-04-14T03:08:31.000Z,4.9
2023-04-14T03:11:16.000Z,4.4
2023-04-14T03:14:00.000Z,5
2023-04-14T03:16:45.000Z,4.3
2023-04-14T03:18:03.000Z,5.1
2023-04-14T03:19:30.000Z,5.2
2023-04-14T03:22:14.000Z,4.6
2023-04-14T03:24:59.000Z,5
2023-04-14T03:27:43.000Z,4.6
2023-04-14T03:30:28.000Z,3.9
2023-04-14T03:33:13.000Z,5.2
2023-04-14T03:35:57.000Z,4.6
2023-04-14T03:38:42.000Z,5.1
2023-04-14T03:41:27.000Z,3.7
2023-04-14T03:44:11.000Z,4.3
2023-04-14T03:45:29.000Z,5.2
2023-04-14T03:46:56.000Z,5.6
2023-04-14T03:49:41.000Z,4.6
2023-04-14T03:52:25.000Z,3.5
2023-04-14T03:55:10.000Z,4.4
2023-04-14T03:57:55.000Z,4.3
2023-04-14T04:00:39.000Z,4.4
2023-04-14T04:03:24.000Z,4.9
2023-04-14T04:06:08.000Z,4.2
2023-04-14T04:08:53.000Z,4.9
2023-04-14T04:11:38.000Z,4.3
2023-04-14T04:12:56.000Z,3.3
2023-04-14T04:14:22.000Z,4.3
2023-04-14T04:17:07.000Z,4
2023-04-14T04:19:52.000Z,3.7
2023-04-14T04:22:36.000Z,4
2023-04-14T04:25:21.000Z,5.3
2023-04-14T04:28:06.000Z,4.9
2023-04-14T04:30:50.000Z,4
2023-04-14T04:33:35.000Z,4
2023-04-14T04:36:20.000Z,4.6
2023-04-14T04:39:04.000Z,5
2023-04-14T04:40:22.000Z,4.5
2023-04-14T04:41:49.000Z,5.4
2023-04-14T04:44:33.000Z,5.1
2023-04-14T04:47:18.000Z,4.8
2023-04-14T04:50:03.000Z,5.8
2023-04-14T04:52:47.000Z,5.5
2023-04-14T04:55:32.000Z,5
2023-04-14T04:58:17.000Z,5.2
2023-04-14T05:01:01.000Z,5.6
2023-04-14T05:03:46.000Z,4.5
2023-04-14T05:06:31.000Z,4.4
2023-04-14T05:07:48.000Z,4.7
2023-04-14T05:09:15.000Z,5
2023-04-14T05:12:00.000Z,3.7
2023-04-14T05:14:44.000Z,4.3
2023-04-14T05:17:29.000Z,3.8
2023-04-14T05:20:14.000Z,4.3
2023-04-14T05:22:58.000Z,4.2
2023-04-14T05:25:43.000Z,4
2023-04-14T05:28:28.000Z,4.1
2023-04-14T05:31:12.000Z,4.4
2023-04-14T05:33:57.000Z,5
2023-04-14T05:35:15.000Z,3.4
2023-04-14T05:36:42.000Z,3.2
2023-04-14T05:39:26.000Z,4.2
2023-04-14T05:42:11.000Z,3.9
2023-04-14T05:44:56.000Z,4.8
2023-04-14T05:47:40.000Z,6.5
2023-04-14T05:50:25.000Z,4.8
2023-04-14T05:53:09.000Z,4.3
2023-04-14T05:55:54.000Z,5.4
2023-04-14T05:58:39.000Z,4.5
2023-04-14T06:01:23.000Z,5.7
2023-04-14T06:02:41.000Z,6.2
2023-04-14T06:04:08.000Z,6.5
2023-04-14T06:06:53.000Z,6.7
2023-04-14T06:09:37.000Z,6.7
2023-04-14T06:12:22.000Z,5.4
2023-04-14T06:15:07.000Z,6
2023-04-14T06:17:51.000Z,18.4
2023-04-14T06:20:36.000Z,14.6
2023-04-14T06:23:21.000Z,7.9
2023-04-14T06:26:05.000Z,6.8
2023-04-14T06:28:50.000Z,7.9
2023-04-14T06:30:08.000Z,8.7
2023-04-14T06:31:34.000Z,6.8
2023-04-14T06:34:19.000Z,6
2023-04-14T06:37:04.000Z,5.4
2023-04-14T06:39:48.000Z,5.1
2023-04-14T06:42:33.000Z,5.4
2023-04-14T06:45:18.000Z,5.4
2023-04-14T06:48:02.000Z,6.3
2023-04-14T06:50:47.000Z,4.9
2023-04-14T06:53:32.000Z,4.6
2023-04-14T06:56:16.000Z,6
2023-04-14T06:57:34.000Z,4.9
2023-04-14T06:59:01.000Z,3.7
2023-04-14T07:01:45.000Z,3.8
2023-04-14T07:04:30.000Z,4.3
2023-04-14T07:07:15.000Z,4
2023-04-14T07:09:59.000Z,4.3
2023-04-14T07:12:44.000Z,4.3
2023-04-14T07:15:29.000Z,3.6
2023-04-14T07:18:13.000Z,3.7
2023-04-14T07:20:58.000Z,3.4
2023-04-14T07:23:43.000Z,3.5
2023-04-14T07:25:01.000Z,3.3
2023-04-14T07:26:27.000Z,3.8
2023-04-14T07:29:12.000Z,3.4
2023-04-14T07:31:57.000Z,3.6
2023-04-14T07:34:58.000Z,3.2
2023-04-14T07:37:42.000Z,3.4
2023-04-14T07:40:27.000Z,3.2
2023-04-14T07:43:11.000Z,3.6
2023-04-14T07:45:56.000Z,3.5
2023-04-14T07:48:41.000Z,3.4
2023-04-14T07:51:25.000Z,3.9
2023-04-14T07:52:43.000Z,4.1
2023-04-14T07:54:10.000Z,4.4
2023-04-14T07:56:55.000Z,4.5
2023-04-14T07:59:39.000Z,4.7
2023-04-14T08:02:24.000Z,4.3
2023-04-14T08:05:09.000Z,4.6
2023-04-14T08:07:53.000Z,4.6
2023-04-14T08:10:38.000Z,4.3
2023-04-14T08:13:23.000Z,4.3
2023-04-14T08:16:07.000Z,4.2
2023-04-14T08:18:52.000Z,4
2023-04-14T08:20:10.000Z,4.2
2023-04-14T08:21:36.000Z,3.8
2023-04-14T08:24:21.000Z,4.4
2023-04-14T08:27:06.000Z,3.6
2023-04-14T08:29:50.000Z,4.2
2023-04-14T08:32:35.000Z,3.7
2023-04-14T08:35:20.000Z,3.9
2023-04-14T08:38:04.000Z,3.8
2023-04-14T08:40:49.000Z,3.8
2023-04-14T08:43:34.000Z,3.7
2023-04-14T08:46:18.000Z,3.3
2023-04-14T08:47:36.000Z,3.3
2023-04-14T08:49:03.000Z,3.5
2023-04-14T08:51:47.000Z,3.3
2023-04-14T08:54:32.000Z,3.3
2023-04-14T08:57:17.000Z,3
2023-04-14T09:00:01.000Z,3.7
2023-04-14T09:05:31.000Z,3.5
2023-04-14T09:08:15.000Z,3.4
2023-04-14T09:11:00.000Z,3.4
2023-04-14T09:15:02.000Z,4.8
2023-04-14T09:16:29.000Z,3.7
2023-04-14T09:19:14.000Z,3.5
2023-04-14T09:21:59.000Z,3.5
2023-04-14T09:27:28.000Z,4.1
2023-04-14T09:30:13.000Z,4.7
2023-04-14T09:33:14.000Z,3.7
2023-04-14T09:35:58.000Z,4.1
2023-04-14T09:38:43.000Z,3.5
2023-04-14T09:41:27.000Z,3.3
2023-04-14T09:42:45.000Z,3.3
2023-04-14T09:44:12.000Z,3.6
2023-04-14T09:46:57.000Z,3.5
2023-04-14T09:49:41.000Z,3.4
2023-04-14T09:52:26.000Z,3.2
2023-04-14T09:55:11.000Z,2.8
2023-04-14T09:57:55.000Z,3.3
2023-04-14T10:00:40.000Z,3.2
2023-04-14T10:06:26.000Z,2.8
2023-04-14T10:09:10.000Z,3.3
2023-04-14T10:10:28.000Z,3.8
2023-04-14T10:11:55.000Z,3
2023-04-14T10:14:40.000Z,2.7
2023-04-14T10:17:24.000Z,2.7
2023-04-14T10:20:09.000Z,3.9
2023-04-14T10:22:53.000Z,1.5
2023-04-14T10:25:38.000Z,2
2023-04-14T10:28:23.000Z,1.9
2023-04-14T10:31:07.000Z,3
2023-04-14T10:33:52.000Z,2.5
2023-04-14T10:36:37.000Z,2.6
2023-04-14T10:37:54.000Z,2.5
2023-04-14T10:39:21.000Z,2.7
2023-04-14T10:42:06.000Z,2.8
2023-04-14T10:44:51.000Z,2.7
2023-04-14T10:47:35.000Z,2.8
2023-04-14T10:50:20.000Z,3.1
2023-04-14T10:53:04.000Z,3.3
2023-04-14T10:55:49.000Z,3.3
2023-04-14T10:58:34.000Z,3.4
2023-04-14T11:01:18.000Z,3.2
2023-04-14T11:04:03.000Z,3.3
2023-04-14T11:05:21.000Z,3.7
2023-04-14T11:06:48.000Z,3.3
2023-04-14T11:09:32.000Z,3.3
2023-04-14T11:12:17.000Z,3.1
2023-04-14T11:15:02.000Z,3.2
2023-04-14T11:17:46.000Z,3.3
2023-04-14T11:20:31.000Z,3.3
2023-04-14T11:23:16.000Z,3.6
2023-04-14T11:26:00.000Z,3.6
2023-04-14T11:28:45.000Z,3.1
2023-04-14T11:31:29.000Z,3.3
2023-04-14T11:32:47.000Z,3.9
2023-04-14T11:34:14.000Z,3.7
2023-04-14T11:36:59.000Z,3.2
2023-04-14T11:39:43.000Z,3
2023-04-14T11:42:28.000Z,3.2
2023-04-14T11:45:13.000Z,3.6
2023-04-14T11:47:57.000Z,4
2023-04-14T11:50:42.000Z,3.3
2023-04-14T11:53:27.000Z,3.4
2023-04-14T11:56:11.000Z,3.2
2023-04-14T11:58:56.000Z,2.8
2023-04-14T12:00:14.000Z,2.8
2023-04-14T12:01:41.000Z,2.8
2023-04-14T12:04:25.000Z,2.8
2023-04-14T12:07:10.000Z,2.4
2023-04-14T12:09:54.000Z,2.5
2023-04-14T12:12:39.000Z,2.8
2023-04-14T12:15:24.000Z,2.9
2023-04-14T12:18:08.000Z,3
2023-04-14T12:20:53.000Z,2.9
2023-04-14T12:23:38.000Z,2.6
2023-04-14T12:26:22.000Z,2.1
2023-04-14T12:27:40.000Z,2.7
2023-04-14T12:29:07.000Z,2.5
2023-04-14T12:31:52.000Z,2.2
2023-04-14T12:34:36.000Z,2.2
2023-04-14T12:37:21.000Z,2.5
2023-04-14T12:40:05.000Z,2.1
2023-04-14T12:42:50.000Z,2.7
2023-04-14T12:45:35.000Z,2.5
2023-04-14T12:48:19.000Z,2.2
2023-04-14T12:51:04.000Z,2
2023-04-14T12:53:49.000Z,2.3
2023-04-14T12:55:07.000Z,1.7
2023-04-14T12:56:33.000Z,2
2023-04-14T12:59:18.000Z,1.9
2023-04-14T13:02:03.000Z,1.7
2023-04-14T13:04:47.000Z,1.8
2023-04-14T13:07:32.000Z,2
2023-04-14T13:10:17.000Z,2.2
2023-04-14T13:13:01.000Z,2.4
2023-04-14T13:15:46.000Z,1.7
2023-04-14T13:18:30.000Z,2.3
2023-04-14T13:21:15.000Z,1.9
2023-04-14T13:22:33.000Z,2.2
2023-04-14T13:24:00.000Z,2
2023-04-14T13:26:44.000Z,1.8
2023-04-14T13:29:29.000Z,2
2023-04-14T13:32:14.000Z,1.9
2023-04-14T13:34:58.000Z,1.8
2023-04-14T13:37:43.000Z,2.1
2023-04-14T13:40:28.000Z,2.7
2023-04-14T13:43:12.000Z,2.3
2023-04-14T13:45:57.000Z,2.2
2023-04-14T13:48:41.000Z,1.7
2023-04-14T13:49:59.000Z,2.4
2023-04-14T13:51:26.000Z,2.1
2023-04-14T13:54:11.000Z,2
2023-04-14T13:56:55.000Z,1.9
2023-04-14T13:59:40.000Z,1.8
2023-04-14T14:02:25.000Z,1.7
2023-04-14T14:05:09.000Z,1.7
2023-04-14T14:07:54.000Z,1.7
2023-04-14T14:10:39.000Z,1.9
2023-04-14T14:13:23.000Z,1.8
2023-04-14T14:16:08.000Z,1.5
2023-04-14T14:17:26.000Z,1.7
2023-04-14T14:18:53.000Z,2.5
2023-04-14T14:21:37.000Z,2.1
2023-04-14T14:24:22.000Z,2.4
2023-04-14T14:27:06.000Z,2.1
2023-04-14T14:29:51.000Z,2.3
2023-04-14T14:32:36.000Z,2
2023-04-14T14:35:20.000Z,1.9
2023-04-14T14:38:05.000Z,2
2023-04-14T14:40:50.000Z,2.2
2023-04-14T14:43:34.000Z,1.7
2023-04-14T14:44:52.000Z,1.9
2023-04-14T14:46:19.000Z,1.7
2023-04-14T14:49:04.000Z,2
2023-04-14T14:51:48.000Z,2.1
2023-04-14T14:54:33.000Z,1.8
2023-04-14T14:57:18.000Z,1.9
2023-04-14T15:00:02.000Z,2
2023-04-14T15:02:47.000Z,2.3
2023-04-14T15:05:31.000Z,2
2023-04-14T15:08:16.000Z,2.3
2023-04-14T15:12:19.000Z,2.1
2023-04-14T15:13:45.000Z,2.3
2023-04-14T15:16:30.000Z,1.8
2023-04-14T15:19:15.000Z,1.9
2023-04-14T15:21:59.000Z,1.8
2023-04-14T15:24:44.000Z,2.4
2023-04-14T15:27:29.000Z,2.3
2023-04-14T15:30:13.000Z,2.2
2023-04-14T15:32:58.000Z,1.9
2023-04-14T15:35:42.000Z,2.5
2023-04-14T15:38:27.000Z,2.9
2023-04-14T15:39:45.000Z,3.1
2023-04-14T15:41:12.000Z,1.8
2023-04-14T15:43:56.000Z,2.2
2023-04-14T15:46:41.000Z,1.9
2023-04-14T15:49:26.000Z,2.1
2023-04-14T15:52:10.000Z,2.2
2023-04-14T15:54:55.000Z,2
2023-04-14T15:57:56.000Z,2.9
2023-04-14T16:00:41.000Z,2
2023-04-14T16:03:25.000Z,2.2
2023-04-14T16:06:10.000Z,2.5
2023-04-14T16:07:28.000Z,2.1
2023-04-14T16:08:55.000Z,2.1
2023-04-14T16:11:39.000Z,2.1
2023-04-14T16:14:24.000Z,1.9
2023-04-14T16:17:08.000Z,1.9
2023-04-14T16:19:53.000Z,2.1
2023-04-14T16:22:38.000Z,1.8
2023-04-14T16:25:22.000Z,2.1
2023-04-14T16:28:07.000Z,2
2023-04-14T16:30:52.000Z,1.8
2023-04-14T16:33:36.000Z,2.6
2023-04-14T16:34:54.000Z,2.3
2023-04-14T16:36:21.000Z,2
2023-04-14T16:39:06.000Z,2
2023-04-14T16:41:50.000Z,1.9
2023-04-14T16:44:35.000Z,1.9
2023-04-14T16:47:20.000Z,2.4
2023-04-14T16:50:04.000Z,2
2023-04-14T16:52:49.000Z,2.1
2023-04-14T16:55:33.000Z,2.2
2023-04-14T16:58:18.000Z,2.6
2023-04-14T17:01:03.000Z,2.1
2023-04-14T17:02:20.000Z,2.2
2023-04-14T17:03:47.000Z,2.5
2023-04-14T17:06:32.000Z,2.3
2023-04-14T17:09:17.000Z,2.4
2023-04-14T17:12:01.000Z,2.2
2023-04-14T17:14:46.000Z,2.1
2023-04-14T17:17:31.000Z,2.2
2023-04-14T17:20:15.000Z,2.3
2023-04-14T17:23:00.000Z,3.3
2023-04-14T17:25:44.000Z,3.1
2023-04-14T17:28:29.000Z,2.5
2023-04-14T17:29:47.000Z,2.5
2023-04-14T17:31:14.000Z,2.7
2023-04-14T17:33:58.000Z,2.6
2023-04-14T17:36:43.000Z,2.5
2023-04-14T17:39:28.000Z,2.7
2023-04-14T17:42:12.000Z,2.7
2023-04-14T17:44:57.000Z,2.9
2023-04-14T17:47:42.000Z,2.6
2023-04-14T17:50:26.000Z,2.6
2023-04-14T17:53:11.000Z,3.1
2023-04-14T17:55:56.000Z,3.1
2023-04-14T17:57:13.000Z,2.8
2023-04-14T17:58:40.000Z,2.6
2023-04-14T18:01:25.000Z,2.5
2023-04-14T18:04:09.000Z,2.5
2023-04-14T18:06:54.000Z,2.3
2023-04-14T18:09:39.000Z,2.1
2023-04-14T18:12:23.000Z,2.6
2023-04-14T18:15:08.000Z,2.1
2023-04-14T18:17:53.000Z,2.3
2023-04-14T18:20:37.000Z,2.2
2023-04-14T18:23:22.000Z,2.5
2023-04-14T18:24:40.000Z,2.5
2023-04-14T18:26:07.000Z,2.1
2023-04-14T18:28:51.000Z,2.2
2023-04-14T18:31:36.000Z,2.5
2023-04-14T18:34:20.000Z,2.2
2023-04-14T18:37:05.000Z,2.2
2023-04-14T18:39:50.000Z,2.3
2023-04-14T18:42:34.000Z,2.1
2023-04-14T18:45:19.000Z,2
2023-04-14T18:48:04.000Z,2
2023-04-14T18:50:48.000Z,1.9
2023-04-14T18:52:06.000Z,2.1
2023-04-14T18:53:33.000Z,2.4
2023-04-14T18:56:18.000Z,2.3
2023-04-14T18:59:02.000Z,2.3
2023-04-14T19:01:47.000Z,2.5
2023-04-14T19:04:32.000Z,2.2
2023-04-14T19:07:16.000Z,2.3
2023-04-14T19:10:01.000Z,2.4
2023-04-14T19:12:45.000Z,2.3
2023-04-14T19:15:30.000Z,2.3
2023-04-14T19:18:15.000Z,2.2
2023-04-14T19:19:33.000Z,2.3
2023-04-14T19:20:59.000Z,2.3
2023-04-14T19:23:44.000Z,2.5
2023-04-14T19:26:29.000Z,2.4
2023-04-14T19:29:13.000Z,2.4
2023-04-14T19:31:58.000Z,2.4
2023-04-14T19:34:43.000Z,2.5
2023-04-14T19:37:27.000Z,2.4
2023-04-14T19:40:12.000Z,1.9
2023-04-14T19:42:56.000Z,2.2
2023-04-14T19:45:41.000Z,2.2
2023-04-14T19:46:59.000Z,2.1
2023-04-14T19:48:26.000Z,2.1
2023-04-14T19:51:10.000Z,2
2023-04-14T19:53:55.000Z,2.5
2023-04-14T19:56:40.000Z,2.3
2023-04-14T19:59:24.000Z,2.3
2023-04-14T20:02:09.000Z,2.2
2023-04-14T20:04:54.000Z,2.4
2023-04-14T20:07:38.000Z,2.4
2023-04-14T20:10:23.000Z,2.4
2023-04-14T20:14:25.000Z,3
2023-04-14T20:15:52.000Z,2.6
2023-04-14T20:18:37.000Z,2.9
2023-04-14T20:21:21.000Z,2.9
2023-04-14T20:24:06.000Z,3
2023-04-14T20:26:51.000Z,3.3
2023-04-14T20:29:35.000Z,2.7
2023-04-14T20:32:20.000Z,2.9
2023-04-14T20:35:05.000Z,3.2
2023-04-14T20:37:49.000Z,2.9
2023-04-14T20:40:34.000Z,3.2
2023-04-14T20:41:52.000Z,2.9
2023-04-14T20:43:19.000Z,2.8
2023-04-14T20:46:03.000Z,3.2
2023-04-14T20:48:48.000Z,3.2
2023-04-14T20:51:33.000Z,3.3
2023-04-14T20:54:17.000Z,2.8
2023-04-14T20:57:02.000Z,2.9
2023-04-14T20:59:46.000Z,3.3
2023-04-14T21:02:31.000Z,2.9
2023-04-14T21:05:16.000Z,3
2023-04-14T21:08:00.000Z,3.3
2023-04-14T21:09:18.000Z,3.6
2023-04-14T21:10:45.000Z,3.3
2023-04-14T21:13:30.000Z,3.2
2023-04-14T21:16:14.000Z,3.7
2023-04-14T21:18:59.000Z,3.5
2023-04-14T21:21:44.000Z,3.6
2023-04-14T21:24:28.000Z,3.4
2023-04-14T21:27:13.000Z,3.3
2023-04-14T21:29:57.000Z,3.6
2023-04-14T21:32:42.000Z,3.4
2023-04-14T21:35:27.000Z,3.8
2023-04-14T21:36:45.000Z,3.7
2023-04-14T21:38:11.000Z,3.7
2023-04-14T21:40:56.000Z,3.5
2023-04-14T21:43:41.000Z,3.6
2023-04-14T21:46:25.000Z,3.5
2023-04-14T21:49:10.000Z,3.8
2023-04-14T21:51:55.000Z,4.3
2023-04-14T21:54:39.000Z,3.5
2023-04-14T21:57:24.000Z,3.1
2023-04-14T22:00:09.000Z,3.5
2023-04-14T22:02:53.000Z,3.3
2023-04-14T22:04:11.000Z,3.7
2023-04-14T22:05:38.000Z,3.3
2023-04-14T22:08:22.000Z,3.6
2023-04-14T22:11:07.000Z,3.4
2023-04-14T22:13:52.000Z,3.2
2023-04-14T22:16:36.000Z,3.5
2023-04-14T22:19:21.000Z,4.2
2023-04-14T22:22:06.000Z,4.6
2023-04-14T22:24:50.000Z,3.7
2023-04-14T22:27:35.000Z,3.5
2023-04-14T22:30:20.000Z,3.9
2023-04-14T22:31:38.000Z,3.8
2023-04-14T22:33:04.000Z,4
2023-04-14T22:35:49.000Z,3.4
2023-04-14T22:38:34.000Z,3.9
2023-04-14T22:41:18.000Z,4
2023-04-14T22:44:03.000Z,3.3
2023-04-14T22:46:47.000Z,3.9
2023-04-14T22:49:32.000Z,3.4
2023-04-14T22:52:17.000Z,3.4
2023-04-14T22:57:46.000Z,4
2023-04-14T22:59:04.000Z,4.1
2023-04-14T23:00:31.000Z,3.3
2023-04-14T23:03:15.000Z,4.1
2023-04-14T23:06:00.000Z,4.5
2023-04-14T23:08:45.000Z,3.3
2023-04-14T23:11:29.000Z,3.4
2023-04-14T23:14:14.000Z,3.4
2023-04-14T23:16:58.000Z,3.4
2023-04-14T23:19:43.000Z,3.7
2023-04-14T23:22:28.000Z,3.3
2023-04-14T23:25:12.000Z,3.7
2023-04-14T23:26:30.000Z,4
2023-04-14T23:27:57.000Z,3.9
2023-04-14T23:30:42.000Z,3.5
2023-04-14T23:33:26.000Z,3.6
2023-04-14T23:36:11.000Z,3.8
2023-04-14T23:38:56.000Z,3
2023-04-14T23:41:40.000Z,3.5
2023-04-14T23:44:25.000Z,3.8
2023-04-14T23:47:10.000Z,3.4
2023-04-14T23:49:54.000Z,4.2
2023-04-14T23:52:39.000Z,4
2023-04-14T23:53:57.000Z,4.7
2023-04-14T23:55:23.000Z,3.9
2023-04-14T23:58:08.000Z,3.4
